Time;durP1;ratioP1;P1;durP2;ratioP2;P2;SDS_P1;SDS_P2;PMS_P1;PMS_P2;Temp;Humidity;BMP_temperature;BMP_pressure;BME280_temperature;BME280_humidity;BME280_pressure;Samples;Min_cycle;Max_cycle;Signal;HPM_P1;HPM_P2
2021/04/03 00:00:08;;;;;;;10.15;5.93;;;;;;;7.57;45.41;102041.34;346725;28;1132;-64
2021/04/03 00:00:22;;;;;;;8.95;5.93;;;;;;;7.63;46.02;102043.00;346588;28;48899;-66
2021/04/03 00:00:39;;;;;;;8.70;6.35;;;;;;;7.74;46.08;102035.81;345091;28;51764;-65
2021/04/03 00:00:53;;;;;;;11.48;6.47;;;;;;;7.73;45.53;102049.00;344544;28;71774;-64
2021/04/03 00:01:06;;;;;;;11.56;6.26;;;;;;;7.73;45.28;102041.13;347292;28;23368;-66
2021/04/03 00:01:19;;;;;;;10.23;6.20;;;;;;;7.67;45.70;102043.84;349017;28;1127;-65
2021/04/03 00:01:30;;;;;;;9.55;5.78;;;;;;;7.54;45.66;102048.38;349499;28;1032;-67
2021/04/03 00:01:41;;;;;;;11.02;5.60;;;;;;;7.53;46.19;102047.53;349563;28;1144;-65
2021/04/03 00:01:52;;;;;;;10.98;5.55;;;;;;;7.46;46.40;102040.63;349500;28;1160;-64
2021/04/03 00:02:05;;;;;;;10.90;5.75;;;;;;;7.47;45.89;102037.97;349514;28;1065;-68
2021/04/03 00:02:16;;;;;;;11.90;5.93;;;;;;;7.48;45.94;102038.81;349537;28;1141;-65
2021/04/03 00:02:27;;;;;;;11.65;6.22;;;;;;;7.56;46.38;102047.47;349616;28;1080;-66
2021/04/03 00:02:39;;;;;;;11.20;5.97;;;;;;;7.64;45.90;102050.88;349671;28;1069;-66
2021/04/03 00:02:52;;;;;;;9.95;5.75;;;;;;;7.68;46.06;102040.31;349628;28;1073;-65
2021/04/03 00:03:05;;;;;;;10.07;5.97;;;;;;;7.66;45.60;102042.09;348708;28;23592;-64
2021/04/03 00:03:19;;;;;;;10.68;6.10;;;;;;;7.62;45.45;102041.25;350633;28;2018;-66
2021/04/03 00:03:31;;;;;;;10.50;5.90;;;;;;;7.68;45.50;102030.69;348738;28;24043;-65
2021/04/03 00:03:42;;;;;;;9.70;5.75;;;;;;;7.69;45.61;102027.13;349559;28;1148;-65
2021/04/03 00:03:53;;;;;;;9.68;6.05;;;;;;;7.76;45.62;102039.31;349350;28;1161;-65
2021/04/03 00:04:05;;;;;;;9.60;6.22;;;;;;;7.78;45.55;102034.03;349503;28;1479;-65
2021/04/03 00:04:16;;;;;;;11.60;6.40;;;;;;;7.85;45.78;102043.56;349549;28;1029;-65
2021/04/03 00:04:27;;;;;;;11.93;6.32;;;;;;;7.86;45.38;102039.16;349619;28;1946;-66
2021/04/03 00:04:38;;;;;;;11.46;6.02;;;;;;;7.84;44.77;102039.19;349539;28;1065;-65
2021/04/03 00:04:50;;;;;;;10.48;5.85;;;;;;;7.77;45.49;102037.56;348174;28;1088;-65
2021/04/03 00:05:01;;;;;;;10.45;6.03;;;;;;;7.71;45.30;102029.75;349011;28;1065;-65
2021/04/03 00:05:15;;;;;;;10.27;6.40;;;;;;;7.62;45.42;102044.78;349602;28;1291;-65
2021/04/03 00:05:27;;;;;;;10.20;6.30;;;;;;;7.67;45.38;102034.19;349369;28;5160;-65
2021/04/03 00:05:39;;;;;;;9.95;6.00;;;;;;;7.61;45.75;102047.41;349425;28;1214;-65
2021/04/03 00:05:51;;;;;;;8.82;5.97;;;;;;;7.63;46.13;102043.88;349532;28;1065;-64
2021/04/03 00:06:03;;;;;;;9.68;6.18;;;;;;;7.73;45.70;102039.34;349547;28;1191;-65
2021/04/03 00:06:14;;;;;;;10.07;6.32;;;;;;;7.63;45.45;102038.59;349567;28;1076;-64
2021/04/03 00:06:25;;;;;;;8.94;5.96;;;;;;;7.60;45.72;102049.19;349535;28;1145;-64
2021/04/03 00:06:36;;;;;;;10.25;6.13;;;;;;;7.63;45.48;102051.75;349459;28;1984;-65
2021/04/03 00:06:47;;;;;;;11.40;6.20;;;;;;;7.63;45.83;102051.75;349582;28;1148;-64
2021/04/03 00:06:59;;;;;;;10.90;6.28;;;;;;;7.68;46.00;102051.72;349487;28;1197;-65
2021/04/03 00:07:10;;;;;;;8.85;6.30;;;;;;;7.69;45.78;102052.56;347930;28;1863;-65
2021/04/03 00:07:39;;;;;;;8.00;5.60;;;;;;;7.62;45.81;102043.88;347044;28;33260;-65
2021/04/03 00:07:51;;;;;;;10.10;6.15;;;;;;;7.60;45.75;102048.31;348210;28;1109;-66
2021/04/03 00:08:26;;;;;;;9.98;6.60;;;;;;;7.69;45.75;102047.31;347086;28;34070;-64
2021/04/03 00:08:37;;;;;;;9.75;6.40;;;;;;;7.67;46.27;102052.59;344392;28;71764;-65
2021/04/03 00:08:49;;;;;;;10.95;6.53;;;;;;;7.62;45.57;102049.16;346812;28;1085;-65
2021/04/03 00:09:00;;;;;;;11.23;6.47;;;;;;;7.65;45.53;102049.09;348058;28;1284;-65
2021/04/03 00:09:29;;;;;;;9.88;6.30;;;;;;;7.56;45.46;102042.22;348303;28;34117;-64
2021/04/03 00:09:40;;;;;;;10.20;6.05;;;;;;;7.53;46.23;102047.53;349521;28;1270;-64
2021/04/03 00:09:51;;;;;;;10.55;6.00;;;;;;;7.55;45.75;102048.38;348131;28;1217;-65
2021/04/03 00:10:12;;;;;;;10.35;5.95;;;;;;;7.55;45.72;102039.63;346758;28;1132;-66
2021/04/03 00:10:30;;;;;;;10.98;6.30;;;;;;;7.51;45.75;102044.03;344338;28;69404;-64
2021/04/03 00:10:46;;;;;;;10.23;6.45;;;;;;;7.55;46.14;102051.00;345773;28;71929;-65
2021/04/03 00:11:00;;;;;;;10.50;6.55;;;;;;;7.57;46.12;102046.59;345778;28;71844;-65
2021/04/03 00:11:20;;;;;;;11.70;6.63;;;;;;;7.59;45.67;102042.16;344974;28;94590;-66
2021/04/03 00:11:31;;;;;;;12.18;6.97;;;;;;;7.56;45.66;102047.47;345685;28;72296;-65
2021/04/03 00:11:42;;;;;;;12.27;7.03;;;;;;;7.63;45.88;102043.88;348181;28;1114;-65
2021/04/03 00:11:53;;;;;;;12.80;6.97;;;;;;;7.62;45.42;102042.16;349627;28;1100;-65
2021/04/03 00:12:06;;;;;;;12.43;6.90;;;;;;;7.71;45.65;102045.53;349629;28;1129;-65
2021/04/03 00:12:17;;;;;;;10.98;6.63;;;;;;;7.76;45.53;102041.06;349534;28;1151;-64
2021/04/03 00:12:28;;;;;;;10.60;6.78;;;;;;;7.78;45.07;102044.56;349700;28;1080;-66
2021/04/03 00:12:39;;;;;;;9.98;6.63;;;;;;;7.76;45.06;102041.06;349566;28;1048;-64
2021/04/03 00:12:50;;;;;;;10.43;6.65;;;;;;;7.80;45.69;102040.13;349537;28;1058;-65
2021/04/03 00:13:02;;;;;;;11.10;6.85;;;;;;;7.78;45.06;102034.91;349538;28;1127;-66
2021/04/03 00:13:14;;;;;;;12.70;7.20;;;;;;;7.71;44.69;102046.41;349438;28;1265;-66
2021/04/03 00:13:29;;;;;;;11.15;6.95;;;;;;;7.63;44.82;102049.13;349449;28;1025;-65
2021/04/03 00:13:42;;;;;;;10.60;6.60;;;;;;;7.61;45.44;102053.56;347109;28;72144;-66
2021/04/03 00:13:53;;;;;;;12.55;7.03;;;;;;;7.63;45.42;102046.50;350481;28;1871;-65
2021/04/03 00:14:04;;;;;;;13.98;7.47;;;;;;;7.59;45.36;102052.69;350714;28;2025;-65
2021/04/03 00:14:15;;;;;;;13.45;7.40;;;;;;;7.66;44.97;102050.00;350955;28;1115;-66
2021/04/03 00:14:27;;;;;;;12.68;7.35;;;;;;;7.71;45.36;102048.16;350958;28;1061;-65
2021/04/03 00:14:56;;;;;;;11.10;7.00;;;;;;;7.84;45.15;102044.44;349792;28;33241;-65
2021/04/03 00:15:08;;;;;;;10.10;6.80;;;;;;;7.89;45.29;102047.88;350428;28;1131;-65
2021/04/03 00:15:20;;;;;;;9.02;6.90;;;;;;;7.94;44.89;102042.53;349594;28;1216;-65
2021/04/03 00:15:31;;;;;;;11.95;7.07;;;;;;;7.99;44.61;102040.72;349577;28;1118;-65
2021/04/03 00:15:43;;;;;;;11.30;6.97;;;;;;;7.96;45.00;102046.03;349658;28;1180;-66
2021/04/03 00:15:54;;;;;;;12.05;7.10;;;;;;;7.87;45.03;102048.81;349628;28;1119;-64
2021/04/03 00:16:05;;;;;;;10.98;7.18;;;;;;;7.84;44.83;102047.09;349467;28;1980;-65
2021/04/03 00:16:17;;;;;;;14.30;7.50;;;;;;;7.80;45.17;102046.28;349530;28;1093;-66
2021/04/03 00:16:28;;;;;;;13.48;7.38;;;;;;;7.80;44.95;102045.38;349517;28;1142;-65
2021/04/03 00:16:39;;;;;;;12.40;7.15;;;;;;;7.77;45.07;102040.19;349530;28;1151;-66
2021/04/03 00:16:50;;;;;;;11.38;7.00;;;;;;;7.80;45.25;102045.38;349487;28;1073;-65
2021/04/03 00:17:01;;;;;;;13.55;7.28;;;;;;;7.88;44.75;102048.78;349418;28;1842;-65
2021/04/03 00:17:13;;;;;;;14.15;7.53;;;;;;;7.91;44.88;102046.13;349529;28;1229;-67
2021/04/03 00:17:24;;;;;;;12.50;7.53;;;;;;;7.89;44.98;102047.03;349528;28;1143;-65
2021/04/03 00:17:35;;;;;;;10.85;7.13;;;;;;;7.95;44.96;102050.44;349525;28;1143;-66
2021/04/03 00:17:46;;;;;;;9.65;6.82;;;;;;;7.92;45.54;102044.34;349517;28;1069;-65
2021/04/03 00:17:57;;;;;;;9.77;7.03;;;;;;;7.94;44.97;102048.69;349470;28;1077;-65
2021/04/03 00:18:09;;;;;;;9.90;6.95;;;;;;;7.81;44.52;102047.13;350811;28;1728;-65
2021/04/03 00:18:20;;;;;;;10.00;6.68;;;;;;;7.79;45.07;102043.69;350893;28;994;-66
2021/04/03 00:18:31;;;;;;;10.07;6.75;;;;;;;7.79;45.55;102044.53;350927;28;1112;-65
2021/04/03 00:18:42;;;;;;;11.13;7.07;;;;;;;7.85;44.89;102048.81;350869;28;1139;-64
2021/04/03 00:18:53;;;;;;;11.60;7.30;;;;;;;7.87;45.56;102041.81;350823;28;1132;-65
2021/04/03 00:19:04;;;;;;;10.85;7.32;;;;;;;7.94;45.76;102048.69;350923;28;1088;-66
2021/04/03 00:19:16;;;;;;;11.73;7.10;;;;;;;8.00;45.16;102046.88;350900;28;1077;-65
2021/04/03 00:19:27;;;;;;;12.55;7.05;;;;;;;8.04;45.56;102048.56;350835;28;2020;-66
2021/04/03 00:19:38;;;;;;;13.13;7.30;;;;;;;8.03;45.11;102054.72;350911;28;1072;-65
2021/04/03 00:19:54;;;;;;;12.82;7.40;;;;;;;7.99;44.94;102053.88;350922;28;1155;-65
2021/04/03 00:20:12;;;;;;;11.07;7.20;;;;;;;8.07;44.73;102040.63;347756;28;70464;-66
2021/04/03 00:20:27;;;;;;;10.27;6.95;;;;;;;8.05;44.71;102050.28;347332;28;69216;-66
2021/04/03 00:20:39;;;;;;;12.13;6.88;;;;;;;7.95;44.78;102050.44;347923;28;47974;-66
2021/04/03 00:20:50;;;;;;;13.48;7.03;;;;;;;7.99;44.33;102053.88;349644;28;1061;-66
2021/04/03 00:21:02;;;;;;;13.63;6.93;;;;;;;7.98;44.73;102058.28;349683;28;1045;-67
2021/04/03 00:21:14;;;;;;;12.13;6.72;;;;;;;7.91;44.87;102046.13;349629;28;1060;-66
2021/04/03 00:21:25;;;;;;;13.18;6.93;;;;;;;7.97;45.34;102059.16;349635;28;1118;-65
2021/04/03 00:21:36;;;;;;;13.05;7.00;;;;;;;8.03;44.56;102054.72;349431;28;1103;-66
2021/04/03 00:21:47;;;;;;;12.20;7.10;;;;;;;7.97;44.56;102047.78;349530;28;1390;-66
2021/04/03 00:21:58;;;;;;;11.55;6.97;;;;;;;7.92;44.59;102046.97;349550;28;1121;-66
2021/04/03 00:22:10;;;;;;;11.10;7.00;;;;;;;7.89;44.49;102052.28;349496;28;1138;-66
2021/04/03 00:22:24;;;;;;;10.25;7.10;;;;;;;7.90;44.88;102044.38;349460;28;1961;-67
2021/04/03 00:22:35;;;;;;;11.75;6.95;;;;;;;7.89;44.97;102045.25;348628;28;25229;-66
2021/04/03 00:22:46;;;;;;;12.35;6.95;;;;;;;7.90;45.31;102051.38;349547;28;1112;-66
2021/04/03 00:22:58;;;;;;;12.40;6.80;;;;;;;7.85;44.98;102046.19;349522;28;1032;-65
2021/04/03 00:23:09;;;;;;;11.48;6.78;;;;;;;7.89;44.64;102055.78;349528;28;1073;-65
2021/04/03 00:23:21;;;;;;;12.30;6.80;;;;;;;7.90;44.71;102057.53;349428;28;1046;-65
2021/04/03 00:23:32;;;;;;;10.93;7.07;;;;;;;7.91;45.05;102056.66;350027;28;1113;-66
2021/04/03 00:23:44;;;;;;;11.00;7.15;;;;;;;7.93;45.08;102054.84;350942;28;1171;-66
2021/04/03 00:23:55;;;;;;;11.38;7.10;;;;;;;7.93;45.04;102054.00;350954;28;1040;-66
2021/04/03 00:24:06;;;;;;;11.57;7.00;;;;;;;7.92;45.38;102058.34;349544;28;1138;-66
2021/04/03 00:24:18;;;;;;;11.38;6.93;;;;;;;7.98;45.03;102053.03;349421;28;1041;-67
2021/04/03 00:24:29;;;;;;;10.77;6.72;;;;;;;8.04;44.72;102053.81;349180;28;1811;-66
2021/04/03 00:24:40;;;;;;;10.02;6.80;;;;;;;7.94;44.96;102056.59;349684;28;2097;-66
2021/04/03 00:24:52;;;;;;;10.82;6.78;;;;;;;7.93;44.60;102052.22;350989;28;1077;-66
2021/04/03 00:25:05;;;;;;;10.86;6.84;;;;;;;7.96;44.26;102056.56;350897;28;1204;-66
2021/04/03 00:25:16;;;;;;;11.60;6.82;;;;;;;7.95;44.71;102058.34;350862;28;1231;-66
2021/04/03 00:25:27;;;;;;;11.30;6.85;;;;;;;7.91;44.84;102059.28;350786;28;1199;-66
2021/04/03 00:25:38;;;;;;;10.73;6.82;;;;;;;7.90;44.88;102054.91;350975;28;1041;-66
2021/04/03 00:25:51;;;;;;;10.85;6.78;;;;;;;7.88;44.66;102061.94;350926;28;1106;-66
2021/04/03 00:26:02;;;;;;;10.48;6.80;;;;;;;7.84;44.80;102076.00;350458;28;1048;-66
2021/04/03 00:26:14;;;;;;;12.32;6.96;;;;;;;7.81;44.58;102052.41;349490;28;1193;-66
2021/04/03 00:26:25;;;;;;;12.45;6.72;;;;;;;7.59;45.23;102068.47;349503;28;1306;-67
2021/04/03 00:26:36;;;;;;;12.57;6.72;;;;;;;7.57;45.20;102062.38;349464;28;1152;-66
2021/04/03 00:26:47;;;;;;;13.98;6.97;;;;;;;7.57;45.70;102062.38;348154;28;1061;-66
2021/04/03 00:26:59;;;;;;;13.27;7.03;;;;;;;7.47;45.91;102063.38;348130;28;1110;-66
2021/04/03 00:27:10;;;;;;;12.00;6.90;;;;;;;7.43;45.71;102069.56;348027;28;1843;-65
2021/04/03 00:27:21;;;;;;;12.05;7.30;;;;;;;7.46;45.32;102065.13;348025;28;1069;-66
2021/04/03 00:27:32;;;;;;;12.20;7.20;;;;;;;7.57;45.88;102062.38;347708;28;1744;-66
2021/04/03 00:27:44;;;;;;;12.30;6.85;;;;;;;7.63;45.48;102056.16;348094;28;1142;-66
2021/04/03 00:27:55;;;;;;;13.23;6.85;;;;;;;7.70;45.69;102055.19;348065;28;1173;-66
2021/04/03 00:28:06;;;;;;;12.27;6.43;;;;;;;7.67;46.17;102057.00;348044;28;1150;-64
2021/04/03 00:28:18;;;;;;;12.07;6.43;;;;;;;7.68;45.09;102056.97;347673;28;1310;-64
2021/04/03 00:28:30;;;;;;;11.05;6.45;;;;;;;7.70;45.29;102056.94;348123;28;1152;-65
2021/04/03 00:28:41;;;;;;;11.75;7.00;;;;;;;7.75;45.45;102063.03;348298;28;1114;-64
2021/04/03 00:28:52;;;;;;;12.00;7.07;;;;;;;7.70;44.88;102070.09;348139;28;1216;-64
2021/04/03 00:29:03;;;;;;;12.07;6.90;;;;;;;7.59;44.86;102067.59;348030;28;1150;-64
2021/04/03 00:29:14;;;;;;;12.25;7.00;;;;;;;7.59;45.80;102065.84;346752;28;3128;-63
2021/04/03 00:29:25;;;;;;;12.45;7.30;;;;;;;7.55;45.73;102063.28;345352;28;1416;-65
2021/04/03 00:29:36;;;;;;;12.73;7.30;;;;;;;7.57;45.91;102062.38;345174;28;1329;-64
2021/04/03 00:29:47;;;;;;;13.15;7.05;;;;;;;7.66;45.48;102056.09;344070;28;1089;-64
2021/04/03 00:29:59;;;;;;;13.20;6.78;;;;;;;7.70;45.20;102059.56;343973;28;1074;-64
2021/04/03 00:30:17;;;;;;;12.38;6.85;;;;;;;7.67;44.42;102072.78;344081;28;1110;-64
2021/04/03 00:30:29;;;;;;;12.35;7.00;;;;;;;7.69;45.23;102061.31;340876;28;94639;-63
2021/04/03 00:30:45;;;;;;;11.50;6.80;;;;;;;7.62;44.54;102065.81;343266;28;70876;-64
2021/04/03 00:30:56;;;;;;;10.57;6.50;;;;;;;7.64;45.30;102068.41;346695;28;1140;-64
2021/04/03 00:31:07;;;;;;;10.80;6.70;;;;;;;7.72;45.48;102063.03;347032;28;1149;-64
2021/04/03 00:31:20;;;;;;;11.70;6.95;;;;;;;7.66;45.33;102060.50;348397;28;1072;-64
2021/04/03 00:31:31;;;;;;;11.65;7.00;;;;;;;7.69;45.42;102063.09;349385;28;1142;-64
2021/04/03 00:31:42;;;;;;;11.80;7.20;;;;;;;7.68;45.71;102056.09;349584;28;1089;-64
2021/04/03 00:31:53;;;;;;;10.30;6.95;;;;;;;7.71;45.33;102063.94;349532;28;1167;-65
2021/04/03 00:32:04;;;;;;;9.98;6.72;;;;;;;7.69;44.64;102063.09;349657;28;1061;-64
2021/04/03 00:32:15;;;;;;;9.57;6.47;;;;;;;7.67;45.55;102062.25;349519;28;1125;-65
2021/04/03 00:32:26;;;;;;;10.50;6.63;;;;;;;7.68;45.19;102059.59;349480;28;1096;-64
2021/04/03 00:32:37;;;;;;;9.80;6.70;;;;;;;7.74;45.49;102061.28;349551;28;1065;-64
2021/04/03 00:32:48;;;;;;;9.65;6.72;;;;;;;7.77;44.84;102062.06;348058;28;1085;-64
2021/04/03 00:33:02;;;;;;;10.62;6.68;;;;;;;7.68;44.62;102063.97;348165;28;1096;-65
2021/04/03 00:33:14;;;;;;;10.82;6.60;;;;;;;7.67;45.27;102062.25;347324;28;23612;-65
2021/04/03 00:33:25;;;;;;;11.30;6.70;;;;;;;7.70;45.41;102067.47;348069;28;2017;-64
2021/04/03 00:33:36;;;;;;;10.93;6.60;;;;;;;7.65;45.50;102062.25;348056;28;1073;-64
2021/04/03 00:33:47;;;;;;;11.63;6.65;;;;;;;7.74;45.02;102069.16;348158;28;1065;-64
2021/04/03 00:33:58;;;;;;;10.93;6.50;;;;;;;7.62;44.64;102059.66;348023;28;1117;-64
2021/04/03 00:34:09;;;;;;;9.93;6.35;;;;;;;7.58;45.11;102061.50;348587;28;1216;-64
2021/04/03 00:34:21;;;;;;;9.35;6.25;;;;;;;7.60;45.96;102050.94;348131;28;1137;-64
2021/04/03 00:34:32;;;;;;;9.93;6.35;;;;;;;7.68;45.35;102053.44;348038;28;1163;-64
2021/04/03 00:34:43;;;;;;;9.75;6.22;;;;;;;7.62;44.99;102062.31;348468;28;1129;-64
2021/04/03 00:34:54;;;;;;;9.77;6.38;;;;;;;7.67;44.57;102054.38;349541;28;1053;-64
2021/04/03 00:35:05;;;;;;;10.02;6.45;;;;;;;7.62;45.33;102071.06;348719;28;1878;-64
2021/04/03 00:35:20;;;;;;;11.20;6.60;;;;;;;7.57;45.58;102053.59;348269;28;2183;-65
2021/04/03 00:35:33;;;;;;;9.23;6.32;;;;;;;7.63;45.43;102049.13;348529;28;25129;-64
2021/04/03 00:35:44;;;;;;;8.48;6.20;;;;;;;7.68;45.58;102056.97;348821;28;23913;-65
2021/04/03 00:35:56;;;;;;;9.43;6.40;;;;;;;7.63;45.56;102062.28;349552;28;1168;-64
2021/04/03 00:36:07;;;;;;;10.92;6.50;;;;;;;7.62;45.66;102050.03;349475;28;1216;-64
2021/04/03 00:36:18;;;;;;;10.63;6.50;;;;;;;7.60;45.75;102057.06;350406;28;1128;-64
2021/04/03 00:36:29;;;;;;;9.85;6.32;;;;;;;7.61;44.89;102050.91;350800;28;1141;-64
2021/04/03 00:36:40;;;;;;;9.13;6.30;;;;;;;7.61;45.23;102052.66;350904;28;1015;-64
2021/04/03 00:36:51;;;;;;;9.63;6.25;;;;;;;7.60;45.59;102051.81;350938;28;1294;-64
2021/04/03 00:37:03;;;;;;;9.82;6.35;;;;;;;7.59;45.45;102052.69;350839;28;1126;-64
2021/04/03 00:37:15;;;;;;;10.98;6.53;;;;;;;7.52;44.99;102044.91;350891;28;1120;-64
2021/04/03 00:37:26;;;;;;;12.52;6.30;;;;;;;7.46;45.77;102052.00;350826;28;1337;-64
2021/04/03 00:37:37;;;;;;;12.00;5.90;;;;;;;7.51;45.11;102049.28;349449;28;1159;-66
2021/04/03 00:37:49;;;;;;;10.18;5.93;;;;;;;7.51;45.36;102043.19;349562;28;1291;-65
2021/04/03 00:38:02;;;;;;;10.60;6.43;;;;;;;7.46;45.18;102040.63;349500;28;1104;-64
2021/04/03 00:38:14;;;;;;;11.35;6.60;;;;;;;7.55;45.35;102053.63;349519;28;1028;-64
2021/04/03 00:38:25;;;;;;;11.45;6.63;;;;;;;7.56;45.23;102054.50;349437;28;1068;-65
2021/04/03 00:38:40;;;;;;;11.88;6.68;;;;;;;7.58;45.72;102056.22;349454;28;1158;-64
2021/04/03 00:38:51;;;;;;;10.35;6.32;;;;;;;7.59;44.98;102046.56;347947;28;48065;-64
2021/04/03 00:39:03;;;;;;;10.18;6.22;;;;;;;7.62;44.96;102060.56;350541;28;1142;-64
2021/04/03 00:39:14;;;;;;;11.50;6.45;;;;;;;7.62;45.33;102057.03;350836;28;1141;-64
2021/04/03 00:39:25;;;;;;;12.07;6.45;;;;;;;7.62;45.24;102046.53;350845;28;1069;-64
2021/04/03 00:39:36;;;;;;;12.78;6.26;;;;;;;7.66;45.04;102052.63;350884;28;1142;-64
2021/04/03 00:39:47;;;;;;;11.65;6.47;;;;;;;7.63;45.02;102049.13;350899;28;1061;-64
2021/04/03 00:39:58;;;;;;;11.20;6.30;;;;;;;7.67;45.30;102054.38;350948;28;1021;-64
2021/04/03 00:40:14;;;;;;;11.02;6.32;;;;;;;7.67;44.93;102051.75;350883;28;1147;-64
2021/04/03 00:40:25;;;;;;;10.75;6.38;;;;;;;7.70;45.36;102051.69;348489;28;70931;-64
2021/04/03 00:40:40;;;;;;;11.86;6.40;;;;;;;7.70;45.10;102054.31;349482;28;1105;-64
2021/04/03 00:40:51;;;;;;;11.77;6.35;;;;;;;7.75;44.66;102047.25;348645;28;25100;-64
2021/04/03 00:41:06;;;;;;;10.68;6.32;;;;;;;7.85;45.44;102047.97;347080;28;70578;-64
2021/04/03 00:41:17;;;;;;;10.05;6.32;;;;;;;7.86;44.32;102050.56;349497;28;1113;-64
2021/04/03 00:41:29;;;;;;;10.05;6.10;;;;;;;7.76;44.61;102047.22;349460;28;1168;-64
2021/04/03 00:41:40;;;;;;;10.73;6.13;;;;;;;7.78;44.80;102050.66;348210;28;1160;-64
2021/04/03 00:41:51;;;;;;;11.93;6.05;;;;;;;7.82;44.94;102044.47;349504;28;1077;-64
2021/04/03 00:42:18;;;;;;;12.13;6.20;;;;;;;7.75;44.81;102048.09;349444;28;1147;-63
2021/04/03 00:42:29;;;;;;;9.05;6.05;;;;;;;7.74;45.19;102038.47;347319;28;69175;-64
2021/04/03 00:42:42;;;;;;;10.10;5.95;;;;;;;7.71;44.69;102053.44;349501;28;1037;-64
2021/04/03 00:42:55;;;;;;;13.00;5.85;;;;;;;7.67;44.76;102051.75;348706;28;24053;-64
2021/04/03 00:43:13;;;;;;;13.45;5.95;;;;;;;7.64;45.09;102050.88;349554;28;1044;-64
2021/04/03 00:43:24;;;;;;;10.98;6.00;;;;;;;7.60;45.15;102049.19;347081;28;71927;-63
2021/04/03 00:43:35;;;;;;;12.10;6.10;;;;;;;7.61;44.65;102043.03;348626;28;1135;-64
2021/04/03 00:43:46;;;;;;;11.27;5.90;;;;;;;7.65;44.85;102046.47;349545;28;1134;-64
2021/04/03 00:43:58;;;;;;;9.95;5.90;;;;;;;7.74;45.35;102045.50;348040;28;1194;-64
2021/04/03 00:44:09;;;;;;;8.65;5.53;;;;;;;7.74;45.09;102056.00;348114;28;1155;-63
2021/04/03 00:44:20;;;;;;;9.93;5.70;;;;;;;7.76;45.50;102035.81;348060;28;1130;-64
2021/04/03 00:44:31;;;;;;;8.77;5.82;;;;;;;7.80;44.60;102040.13;348160;28;1037;-63
2021/04/03 00:44:44;;;;;;;8.77;5.85;;;;;;;7.83;44.56;102040.09;349495;28;1187;-65
2021/04/03 00:44:55;;;;;;;8.54;5.94;;;;;;;7.86;45.09;102042.69;349429;28;1065;-64
2021/04/03 00:45:07;;;;;;;9.98;6.10;;;;;;;7.89;44.91;102040.00;349424;28;1914;-64
2021/04/03 00:45:20;;;;;;;9.80;5.90;;;;;;;7.88;44.86;102048.78;349467;28;1146;-64
2021/04/03 00:45:35;;;;;;;10.13;5.80;;;;;;;7.79;45.10;102046.31;350123;28;1025;-64
2021/04/03 00:45:46;;;;;;;9.93;5.90;;;;;;;7.74;44.95;102051.59;349241;28;24443;-65
2021/04/03 00:45:58;;;;;;;9.90;5.90;;;;;;;7.72;45.28;102039.38;349903;28;2013;-64
2021/04/03 00:46:09;;;;;;;9.07;5.75;;;;;;;7.69;45.44;102055.19;349606;28;1097;-64
2021/04/03 00:46:20;;;;;;;8.93;5.65;;;;;;;7.68;45.21;102050.81;349613;28;1229;-64
2021/04/03 00:46:31;;;;;;;9.88;5.60;;;;;;;7.65;45.29;102049.09;349625;28;1106;-64
2021/04/03 00:46:42;;;;;;;11.90;5.75;;;;;;;7.70;45.14;102049.91;349607;28;1089;-64
2021/04/03 00:46:53;;;;;;;12.05;5.82;;;;;;;7.74;45.19;102040.22;349555;28;1130;-64
2021/04/03 00:47:04;;;;;;;10.88;5.93;;;;;;;7.77;45.03;102046.28;349593;28;1138;-64
2021/04/03 00:47:16;;;;;;;9.38;5.78;;;;;;;7.83;44.87;102042.75;349639;28;1173;-64
2021/04/03 00:47:27;;;;;;;8.30;5.38;;;;;;;7.81;44.49;102041.88;349565;28;1129;-64
2021/04/03 00:47:38;;;;;;;8.98;5.47;;;;;;;7.81;44.83;102052.41;349539;28;1231;-65
2021/04/03 00:47:50;;;;;;;9.00;5.57;;;;;;;7.82;45.47;102047.09;349539;28;1130;-64
2021/04/03 00:48:02;;;;;;;8.68;5.40;;;;;;;7.73;45.27;102052.50;349497;28;1133;-64
2021/04/03 00:48:31;;;;;;;8.52;5.30;;;;;;;7.50;45.04;102042.31;348561;28;33250;-64
2021/04/03 00:48:42;;;;;;;8.40;5.53;;;;;;;7.51;45.22;102044.03;349539;28;1187;-65
2021/04/03 00:48:53;;;;;;;8.50;5.75;;;;;;;7.59;45.51;102041.31;349606;28;1105;-64
2021/04/03 00:49:06;;;;;;;8.82;5.80;;;;;;;7.67;45.09;102038.59;349486;28;1067;-64
2021/04/03 00:49:17;;;;;;;9.05;5.97;;;;;;;7.62;45.33;102044.78;349566;28;1238;-64
2021/04/03 00:49:28;;;;;;;8.82;5.75;;;;;;;7.61;45.13;102040.41;349559;28;1213;-64
2021/04/03 00:49:44;;;;;;;8.68;5.57;;;;;;;7.59;45.11;102039.53;349504;28;1098;-65
2021/04/03 00:49:56;;;;;;;11.18;5.65;;;;;;;7.67;45.33;102046.47;347083;28;71528;-65
2021/04/03 00:50:08;;;;;;;12.27;5.78;;;;;;;7.68;44.77;102032.41;349499;28;1221;-65
2021/04/03 00:50:41;;;;;;;8.38;4.93;;;;;;;7.46;45.25;102040.63;348379;28;34048;-64
2021/04/03 00:50:53;;;;;;;9.65;4.85;;;;;;;7.38;45.46;102039.84;348688;28;24231;-65
2021/04/03 00:51:05;;;;;;;10.15;4.82;;;;;;;7.43;46.26;102044.16;349448;28;1119;-65
2021/04/03 00:51:16;;;;;;;11.13;5.00;;;;;;;7.49;45.45;102037.94;349483;28;1127;-65
2021/04/03 00:51:28;;;;;;;9.98;5.10;;;;;;;7.52;45.45;102039.66;349352;28;1134;-65
2021/04/03 00:51:41;;;;;;;12.50;5.50;;;;;;;7.50;45.54;102039.69;349489;28;1212;-65
2021/04/03 00:51:52;;;;;;;12.30;5.80;;;;;;;7.54;45.97;102046.66;347968;28;24202;-64
2021/04/03 00:52:10;;;;;;;10.82;5.93;;;;;;;7.58;45.19;102044.81;348139;28;1093;-65
2021/04/03 00:52:23;;;;;;;11.57;5.68;;;;;;;7.67;45.49;102049.09;345676;28;70439;-64
2021/04/03 00:52:35;;;;;;;11.55;5.53;;;;;;;7.67;45.42;102049.09;348104;28;1080;-65
2021/04/03 00:52:47;;;;;;;9.50;5.35;;;;;;;7.69;45.62;102031.53;348073;28;1094;-65
2021/04/03 00:52:59;;;;;;;8.10;5.63;;;;;;;7.71;45.18;102035.03;346726;28;1110;-63
2021/04/03 00:53:16;;;;;;;7.57;5.75;;;;;;;7.71;45.23;102030.63;346701;28;1305;-65
2021/04/03 00:53:28;;;;;;;8.57;5.82;;;;;;;7.67;45.13;102039.44;344289;28;71704;-64
2021/04/03 00:53:40;;;;;;;8.70;5.78;;;;;;;7.63;45.65;102037.75;346674;28;1227;-64
2021/04/03 00:53:53;;;;;;;9.27;5.88;;;;;;;7.68;45.42;102030.69;347845;28;1177;-64
2021/04/03 00:54:04;;;;;;;9.57;5.82;;;;;;;7.74;45.50;102032.34;349324;28;1030;-66
2021/04/03 00:54:15;;;;;;;9.55;5.80;;;;;;;7.79;45.31;102041.91;349444;28;1080;-64
2021/04/03 00:54:26;;;;;;;10.48;5.50;;;;;;;7.83;45.19;102037.47;348125;28;1081;-64
2021/04/03 00:54:37;;;;;;;11.95;5.45;;;;;;;7.78;45.11;102044.56;348030;28;1589;-65
2021/04/03 00:54:48;;;;;;;12.40;5.47;;;;;;;7.73;45.15;102031.44;348063;28;1134;-65
2021/04/03 00:54:59;;;;;;;11.15;5.47;;;;;;;7.80;45.39;102025.22;349443;28;1068;-65
2021/04/03 00:55:11;;;;;;;10.43;5.60;;;;;;;7.80;45.46;102025.22;349427;28;1010;-66
2021/04/03 00:55:22;;;;;;;10.52;5.63;;;;;;;7.74;45.23;102021.81;348153;28;1136;-65
2021/04/03 00:55:52;;;;;;;8.57;5.00;;;;;;;7.53;45.43;102030.88;347021;28;33216;-65
2021/04/03 00:56:04;;;;;;;8.45;4.57;;;;;;;7.48;45.58;102036.19;348061;28;1134;-65
2021/04/03 00:56:16;;;;;;;7.80;4.20;;;;;;;7.38;45.65;102030.19;348038;28;1120;-66
2021/04/03 00:56:27;;;;;;;8.00;4.43;;;;;;;7.30;46.08;102040.78;349062;28;1792;-65
2021/04/03 00:56:38;;;;;;;8.13;4.68;;;;;;;7.28;45.65;102036.44;350456;28;1994;-65
2021/04/03 00:56:49;;;;;;;8.60;5.00;;;;;;;7.32;46.11;102032.03;350859;28;1073;-65
2021/04/03 00:57:00;;;;;;;10.30;4.95;;;;;;;7.39;45.96;102042.47;349432;28;1131;-68
2021/04/03 00:57:12;;;;;;;9.38;4.90;;;;;;;7.44;45.79;102034.50;348070;28;1082;-68
2021/04/03 00:57:23;;;;;;;10.25;4.88;;;;;;;7.51;46.26;102037.91;349316;28;1081;-67
2021/04/03 00:57:35;;;;;;;9.90;4.90;;;;;;;7.58;45.95;102035.19;349478;28;1075;-67
2021/04/03 00:57:48;;;;;;;11.57;5.00;;;;;;;7.67;45.63;102039.44;349396;28;1045;-67
2021/04/03 00:58:00;;;;;;;9.24;4.86;;;;;;;7.75;45.62;102034.09;349354;28;1351;-67
2021/04/03 00:58:12;;;;;;;8.48;4.85;;;;;;;7.71;45.45;102035.88;349464;28;1240;-68
2021/04/03 00:58:23;;;;;;;9.23;5.07;;;;;;;7.61;44.98;102037.78;349491;28;1135;-67
2021/04/03 00:58:34;;;;;;;10.27;5.00;;;;;;;7.58;45.11;102032.56;349477;28;1122;-67
2021/04/03 00:58:45;;;;;;;9.73;4.97;;;;;;;7.59;45.41;102038.69;349487;28;1071;-67
2021/04/03 00:58:57;;;;;;;9.60;5.03;;;;;;;7.54;45.91;102029.97;350013;28;1127;-68
2021/04/03 00:59:08;;;;;;;9.30;5.18;;;;;;;7.44;45.62;102037.13;350927;28;1077;-66
2021/04/03 00:59:19;;;;;;;8.60;5.10;;;;;;;7.43;45.60;102033.66;350980;28;1188;-67